Time;durP1;ratioP1;P1;durP2;ratioP2;P2;SDS_P1;SDS_P2;PMS_P1;PMS_P2;Temp;Humidity;BMP_temperature;BMP_pressure;BME280_temperature;BME280_humidity;BME280_pressure;Samples;Min_cycle;Max_cycle;Signal;HPM_P1;HPM_P2
2024/01/21 00:02:27;;;;;;;9.25;6.00;;;14.80;60.40;;;;;;4220637;28;20071;-41
2024/01/21 00:05:08;;;;;;;7.25;5.60;;;14.80;60.40;;;;;;4212846;27;20054;-41
2024/01/21 00:07:49;;;;;;;6.28;5.30;;;14.80;60.40;;;;;;4202312;28;20051;-41
2024/01/21 00:10:30;;;;;;;6.85;5.80;;;14.80;60.40;;;;;;4209770;27;20497;-41
2024/01/21 00:13:12;;;;;;;6.20;5.60;;;14.90;60.50;;;;;;4219675;28;20042;-41
2024/01/21 00:15:54;;;;;;;7.87;5.43;;;14.90;60.40;;;;;;4211052;27;20077;-41
2024/01/21 00:18:35;;;;;;;7.53;6.38;;;14.90;60.40;;;;;;4219327;27;20055;-41
2024/01/21 00:21:15;;;;;;;7.45;6.40;;;14.90;60.30;;;;;;4221057;27;20063;-41
2024/01/21 00:23:57;;;;;;;9.75;7.13;;;14.90;60.10;;;;;;4219586;27;20418;-41
2024/01/21 00:26:41;;;;;;;9.70;6.75;;;14.90;60.90;;;;;;4204053;28;20079;-41
2024/01/21 00:29:24;;;;;;;9.40;6.65;;;14.90;60.20;;;;;;4206553;28;20047;-42
2024/01/21 00:32:07;;;;;;;8.65;7.57;;;15.00;60.30;;;;;;4204963;28;20212;-48
2024/01/21 00:34:48;;;;;;;7.13;6.43;;;15.00;59.90;;;;;;4206483;28;20348;-46
2024/01/21 00:37:29;;;;;;;7.82;6.88;;;15.10;59.80;;;;;;4188888;28;20380;-47
2024/01/21 00:40:10;;;;;;;9.50;7.55;;;15.10;59.70;;;;;;4189775;28;20059;-46
2024/01/21 00:42:51;;;;;;;9.32;7.57;;;15.10;59.60;;;;;;4187590;28;20047;-46
2024/01/21 00:45:32;;;;;;;8.02;6.72;;;15.10;59.50;;;;;;4201755;27;20043;-46
2024/01/21 00:48:14;;;;;;;8.65;6.35;;;15.10;59.50;;;;;;4205930;27;20363;-45
2024/01/21 00:50:55;;;;;;;7.07;6.22;;;15.10;59.50;;;;;;4205819;27;20339;-46
2024/01/21 00:53:36;;;;;;;8.10;6.78;;;15.10;59.60;;;;;;4206521;27;20088;-46
2024/01/21 00:56:17;;;;;;;8.63;6.72;;;15.10;59.50;;;;;;4188820;27;20059;-47
2024/01/21 00:58:58;;;;;;;8.45;6.30;;;15.10;59.70;;;;;;4187170;28;20197;-48
2024/01/21 01:01:39;;;;;;;7.30;6.00;;;15.10;59.90;;;;;;4189374;28;20059;-47
2024/01/21 01:04:21;;;;;;;8.02;6.13;;;15.20;60.60;;;;;;4187823;28;20124;-46
2024/01/21 01:07:02;;;;;;;7.72;6.50;;;15.20;59.50;;;;;;4188942;28;20059;-47
2024/01/21 01:09:43;;;;;;;8.27;6.88;;;15.30;59.30;;;;;;4215693;27;20402;-46
2024/01/21 01:12:24;;;;;;;9.23;6.72;;;15.40;59.40;;;;;;4220949;27;20092;-46
2024/01/21 01:15:05;;;;;;;9.60;6.68;;;15.50;59.10;;;;;;4222308;27;20058;-48
2024/01/21 01:17:48;;;;;;;7.57;6.43;;;15.70;58.60;;;;;;4222997;27;20055;-46
2024/01/21 01:20:31;;;;;;;7.75;6.88;;;15.80;58.40;;;;;;4221874;27;20051;-47
2024/01/21 01:23:12;;;;;;;8.98;6.65;;;15.80;58.10;;;;;;4217182;27;20051;-47
2024/01/21 01:25:53;;;;;;;8.40;6.55;;;15.90;57.90;;;;;;4206970;28;20063;-45
2024/01/21 01:28:34;;;;;;;7.35;6.47;;;16.00;57.80;;;;;;4206569;28;20051;-46
2024/01/21 01:31:18;;;;;;;8.38;6.00;;;16.00;57.70;;;;;;4205767;28;20055;-45
2024/01/21 01:33:58;;;;;;;8.07;6.63;;;16.10;57.50;;;;;;4205547;27;20050;-45
2024/01/21 01:36:41;;;;;;;7.68;6.65;;;16.10;57.50;;;;;;4205924;28;20043;-50
2024/01/21 01:39:23;;;;;;;7.80;5.88;;;16.00;57.50;;;;;;4204718;28;20042;-46
2024/01/21 01:42:04;;;;;;;7.13;5.95;;;16.10;57.60;;;;;;4206612;28;20208;-49
2024/01/21 01:44:45;;;;;;;7.70;5.80;;;16.10;57.50;;;;;;4215822;27;20047;-48
2024/01/21 01:47:26;;;;;;;6.07;5.10;;;16.20;57.30;;;;;;4205643;28;20375;-46
2024/01/21 01:50:09;;;;;;;6.45;5.78;;;16.20;58.00;;;;;;4195907;28;20552;-46
2024/01/21 01:52:52;;;;;;;6.68;5.70;;;16.20;57.10;;;;;;4188984;28;20059;-46
2024/01/21 01:55:34;;;;;;;8.95;6.15;;;16.10;56.80;;;;;;4209601;27;20048;-47
2024/01/21 01:58:17;;;;;;;7.93;5.60;;;16.10;56.90;;;;;;4206217;28;20051;-46
2024/01/21 02:00:58;;;;;;;6.38;5.25;;;16.00;56.90;;;;;;4205451;27;20050;-47
2024/01/21 02:03:39;;;;;;;6.53;5.70;;;15.90;57.10;;;;;;4199078;27;20133;-45
2024/01/21 02:06:21;;;;;;;6.65;5.00;;;15.80;57.20;;;;;;4203492;27;20047;-46
2024/01/21 02:09:03;;;;;;;;;;;15.80;57.60;;;;;;4197611;27;20056;-45
2024/01/21 02:11:44;;;;;;;6.43;5.07;;;15.90;57.70;;;;;;4203273;27;19985;-46
2024/01/21 02:14:25;;;;;;;5.95;4.75;;;16.00;57.50;;;;;;4194657;27;20050;-45
2024/01/21 02:17:06;;;;;;;5.07;4.57;;;16.00;57.30;;;;;;4202766;27;20101;-46
2024/01/21 02:19:47;;;;;;;6.47;4.85;;;16.10;56.90;;;;;;4205935;27;20051;-46
2024/01/21 02:22:30;;;;;;;8.68;4.78;;;16.10;56.90;;;;;;4203769;27;20089;-45
2024/01/21 02:25:12;;;;;;;5.88;4.13;;;16.10;56.80;;;;;;4187938;28;20051;-47
2024/01/21 02:27:53;;;;;;;5.38;4.40;;;16.10;56.70;;;;;;4188608;28;20055;-46
2024/01/21 02:30:40;;;;;;;5.50;4.33;;;16.10;57.10;;;;;;4203763;27;20055;-47
2024/01/21 02:33:22;;;;;;;6.43;4.13;;;16.10;57.10;;;;;;4193782;28;20301;-40
2024/01/21 02:36:03;;;;;;;;;;;16.10;57.00;;;;;;4204939;27;20142;-42
2024/01/21 02:38:43;;;;;;;5.72;4.22;;;16.10;57.00;;;;;;4205129;28;20009;-41
2024/01/21 02:41:26;;;;;;;7.32;4.47;;;16.00;57.10;;;;;;4203734;28;20055;-40
2024/01/21 02:44:07;;;;;;;4.57;4.03;;;15.90;56.90;;;;;;4204801;28;20066;-41
2024/01/21 02:46:48;;;;;;;5.63;3.85;;;15.80;57.20;;;;;;4205107;28;20051;-41
2024/01/21 02:49:29;;;;;;;4.20;3.80;;;15.70;57.30;;;;;;4203398;28;20406;-41
2024/01/21 02:52:10;;;;;;;3.83;3.40;;;15.60;57.40;;;;;;4203277;28;20051;-41
2024/01/21 02:54:52;;;;;;;3.78;3.40;;;15.60;57.80;;;;;;4195497;28;20150;-41
2024/01/21 02:57:34;;;;;;;3.88;3.50;;;15.60;57.70;;;;;;4204333;28;20078;-41
2024/01/21 03:00:16;;;;;;;3.90;3.53;;;15.70;57.80;;;;;;4204941;28;20088;-41
2024/01/21 03:02:58;;;;;;;4.05;3.45;;;15.70;57.90;;;;;;4204138;28;20058;-41
2024/01/21 03:05:39;;;;;;;;;;;15.70;57.50;;;;;;4214973;28;20129;-41
2024/01/21 03:08:20;;;;;;;4.28;3.22;;;15.80;57.50;;;;;;4234522;27;20393;-41
2024/01/21 03:11:01;;;;;;;3.20;2.92;;;15.80;57.50;;;;;;4238503;27;20184;-41
2024/01/21 03:13:43;;;;;;;4.63;3.10;;;15.80;57.10;;;;;;4207805;27;20058;-41
2024/01/21 03:16:25;;;;;;;3.45;3.15;;;15.70;57.10;;;;;;4221466;27;20119;-41
2024/01/21 03:19:06;;;;;;;3.33;3.05;;;15.60;57.30;;;;;;4221691;27;20407;-41
2024/01/21 03:21:46;;;;;;;2.65;2.40;;;15.60;57.60;;;;;;4203533;28;20060;-41
2024/01/21 03:24:27;;;;;;;2.80;2.60;;;15.50;57.60;;;;;;4195220;27;20066;-41
2024/01/21 03:27:08;;;;;;;3.20;2.90;;;15.50;57.50;;;;;;4201365;27;20067;-42
2024/01/21 03:29:51;;;;;;;2.85;2.63;;;15.40;57.70;;;;;;4220149;27;20135;-41
2024/01/21 03:32:32;;;;;;;2.95;2.53;;;15.40;58.20;;;;;;4215207;28;20461;-41
2024/01/21 03:35:13;;;;;;;2.88;2.53;;;15.50;58.00;;;;;;4214321;27;20047;-47
2024/01/21 03:37:54;;;;;;;2.73;2.40;;;15.60;58.00;;;;;;4221771;27;20107;-46
2024/01/21 03:40:34;;;;;;;2.92;2.72;;;15.80;57.80;;;;;;4216159;27;20293;-49
2024/01/21 03:43:17;;;;;;;2.60;2.20;;;15.90;57.20;;;;;;4206092;27;20047;-46
2024/01/21 03:46:00;;;;;;;2.55;2.33;;;16.10;56.80;;;;;;4187228;28;20063;-45
2024/01/21 03:48:41;;;;;;;2.05;1.90;;;16.30;56.40;;;;;;4217428;27;20378;-46
2024/01/21 03:51:22;;;;;;;2.40;2.20;;;16.40;56.00;;;;;;4221131;27;20070;-49
2024/01/21 03:54:03;;;;;;;2.33;2.13;;;16.50;55.60;;;;;;4201684;28;20069;-46
2024/01/21 03:56:44;;;;;;;2.57;2.33;;;16.60;55.40;;;;;;4202508;28;20055;-46
2024/01/21 03:59:25;;;;;;;2.33;1.90;;;16.60;55.00;;;;;;4220747;27;20104;-45
2024/01/21 04:02:07;;;;;;;2.58;2.13;;;16.60;55.90;;;;;;4207389;27;20165;-45
2024/01/21 04:04:48;;;;;;;2.20;2.00;;;16.60;55.20;;;;;;4216829;27;20482;-47
2024/01/21 04:07:29;;;;;;;2.45;1.80;;;16.60;55.00;;;;;;4217722;28;20123;-47
2024/01/21 04:10:11;;;;;;;2.03;1.90;;;16.60;55.10;;;;;;4221186;27;20063;-47
2024/01/21 04:12:52;;;;;;;2.20;2.10;;;16.50;55.30;;;;;;4213307;28;20563;-46
2024/01/21 04:15:34;;;;;;;2.00;1.85;;;16.60;55.30;;;;;;4220178;27;20096;-46
2024/01/21 04:18:16;;;;;;;3.28;1.75;;;16.60;55.20;;;;;;4220160;28;20043;-46
2024/01/21 04:21:00;;;;;;;1.77;1.58;;;16.60;55.20;;;;;;4212392;27;20155;-50
2024/01/21 04:23:41;;;;;;;2.15;1.98;;;16.60;55.30;;;;;;4200545;28;20093;-46
2024/01/21 04:26:22;;;;;;;2.00;1.90;;;16.60;55.20;;;;;;4204289;28;20066;-46
2024/01/21 04:29:02;;;;;;;1.90;1.80;;;16.70;55.10;;;;;;4201331;28;20118;-47
2024/01/21 04:31:44;;;;;;;1.75;1.65;;;16.60;55.00;;;;;;4206075;28;20054;-46
2024/01/21 04:34:27;;;;;;;1.70;1.60;;;16.60;55.00;;;;;;4217021;27;20078;-46
2024/01/21 04:37:08;;;;;;;1.60;1.52;;;16.60;55.00;;;;;;4220738;27;20516;-46
2024/01/21 04:39:48;;;;;;;2.07;1.97;;;16.50;55.10;;;;;;4216305;27;20042;-47
2024/01/21 04:42:30;;;;;;;1.90;1.67;;;16.50;55.40;;;;;;4201974;28;20305;-46
2024/01/21 04:45:14;;;;;;;1.67;1.58;;;16.50;56.20;;;;;;4203572;28;20559;-45
2024/01/21 04:47:55;;;;;;;1.92;1.70;;;16.60;55.40;;;;;;4201177;28;20059;-48
2024/01/21 04:50:38;;;;;;;1.63;1.52;;;16.60;55.10;;;;;;4201511;28;20055;-45
2024/01/21 04:53:19;;;;;;;1.60;1.50;;;16.70;54.90;;;;;;4201252;28;20177;-45
2024/01/21 04:56:00;;;;;;;1.52;1.42;;;16.80;54.80;;;;;;4208810;27;20604;-45
2024/01/21 04:58:41;;;;;;;1.70;1.50;;;16.90;54.60;;;;;;4220800;28;20050;-41
2024/01/21 05:01:23;;;;;;;1.85;1.63;;;16.90;54.10;;;;;;4220280;27;20181;-41
2024/01/21 05:04:04;;;;;;;1.45;1.25;;;17.00;54.00;;;;;;4210493;27;20058;-41
2024/01/21 05:06:47;;;;;;;1.70;1.60;;;17.00;53.80;;;;;;4202732;28;20150;-41
2024/01/21 05:09:28;;;;;;;1.77;1.63;;;16.90;53.90;;;;;;4189581;28;20765;-41
2024/01/21 05:12:10;;;;;;;9.38;1.60;;;16.90;54.00;;;;;;4202943;28;20055;-42
2024/01/21 05:14:51;;;;;;;2.03;1.83;;;16.80;54.20;;;;;;4205134;28;20054;-41
2024/01/21 05:17:32;;;;;;;1.70;1.60;;;16.80;54.40;;;;;;4214098;27;20066;-41
2024/01/21 05:20:13;;;;;;;1.17;1.17;;;16.70;54.60;;;;;;4213270;27;20197;-41
2024/01/21 05:22:56;;;;;;;3.13;1.33;;;16.60;54.50;;;;;;4206367;28;20059;-42
2024/01/21 05:25:37;;;;;;;1.67;1.58;;;16.50;54.70;;;;;;4189510;28;20055;-41
2024/01/21 05:28:18;;;;;;;1.42;1.33;;;16.40;54.80;;;;;;4204485;28;20133;-41
2024/01/21 05:30:59;;;;;;;2.27;1.63;;;16.40;54.90;;;;;;4204733;28;20047;-41
2024/01/21 05:33:40;;;;;;;1.53;1.37;;;16.20;55.30;;;;;;4221376;27;20418;-41
2024/01/21 05:36:21;;;;;;;;;;;16.20;55.50;;;;;;4222096;27;20123;-41
2024/01/21 05:39:04;;;;;;;1.55;1.40;;;16.20;56.00;;;;;;4221672;27;20455;-41
2024/01/21 05:42:00;;;;;;;1.67;1.58;;;16.20;55.50;;;;;;4195773;27;20052;-41
2024/01/21 05:44:41;;;;;;;1.58;1.45;;;16.30;55.40;;;;;;4190616;28;20055;-49
2024/01/21 05:47:22;;;;;;;1.58;1.42;;;16.30;55.30;;;;;;4188530;28;20055;-40
2024/01/21 05:50:03;;;;;;;1.80;1.70;;;16.40;55.30;;;;;;4189018;28;20656;-41
2024/01/21 05:52:44;;;;;;;1.52;1.42;;;16.50;55.20;;;;;;4186818;28;20059;-41
2024/01/21 05:55:27;;;;;;;1.60;1.50;;;16.60;54.90;;;;;;4186729;28;20062;-40
2024/01/21 05:58:10;;;;;;;3.45;2.03;;;16.70;54.50;;;;;;4187577;28;20046;-40
2024/01/21 06:00:51;;;;;;;2.17;1.70;;;16.80;53.90;;;;;;4189892;28;20052;-40
2024/01/21 06:03:32;;;;;;;1.80;1.70;;;16.80;53.60;;;;;;4185102;28;20056;-41
2024/01/21 06:06:13;;;;;;;1.75;1.55;;;16.80;53.90;;;;;;4190825;28;20138;-41
2024/01/21 06:08:56;;;;;;;3.40;1.65;;;16.90;53.90;;;;;;4181171;27;20054;-40
2024/01/21 06:11:39;;;;;;;2.10;2.00;;;16.90;53.60;;;;;;4190257;28;20063;-41
2024/01/21 06:14:20;;;;;;;1.70;1.60;;;17.00;53.30;;;;;;4193726;28;20610;-41
2024/01/21 06:17:02;;;;;;;1.98;1.80;;;17.10;53.30;;;;;;4194360;28;20063;-40
2024/01/21 06:19:43;;;;;;;;;;;17.10;53.20;;;;;;4188829;28;20051;-42
2024/01/21 06:22:24;;;;;;;2.50;2.30;;;17.10;53.50;;;;;;4193156;28;20013;-47
2024/01/21 06:25:06;;;;;;;2.25;2.10;;;17.10;53.20;;;;;;4193149;28;20072;-41
2024/01/21 06:27:49;;;;;;;3.90;2.40;;;17.10;53.10;;;;;;4192860;27;20605;-40
2024/01/21 06:30:30;;;;;;;1.90;1.80;;;17.20;53.00;;;;;;4192071;28;20183;-41
2024/01/21 06:33:11;;;;;;;4.22;2.45;;;17.20;53.00;;;;;;4193276;28;20055;-40
2024/01/21 06:35:51;;;;;;;2.22;1.95;;;17.10;52.90;;;;;;4209785;27;20066;-41
2024/01/21 06:38:33;;;;;;;4.03;2.40;;;17.20;53.60;;;;;;4210739;28;20104;-41
2024/01/21 06:41:14;;;;;;;5.10;2.60;;;17.20;52.50;;;;;;4210151;28;20058;-40
2024/01/21 06:43:56;;;;;;;3.70;2.60;;;17.20;52.50;;;;;;4210599;28;20046;-41
2024/01/21 06:46:38;;;;;;;2.97;2.70;;;17.20;52.70;;;;;;4208794;28;20055;-40
2024/01/21 06:49:19;;;;;;;2.70;2.50;;;17.20;52.60;;;;;;4210305;28;20051;-40
2024/01/21 06:52:00;;;;;;;2.90;2.70;;;17.30;52.50;;;;;;4208345;28;20208;-40
2024/01/21 06:54:41;;;;;;;2.80;2.60;;;17.30;52.50;;;;;;4208963;28;20051;-41
2024/01/21 06:57:22;;;;;;;3.00;2.70;;;17.30;52.60;;;;;;4209935;28;20156;-45
2024/01/21 07:00:06;;;;;;;3.13;2.90;;;17.30;53.10;;;;;;4208695;28;20494;-48
2024/01/21 07:02:48;;;;;;;2.53;2.30;;;17.30;52.30;;;;;;4208565;28;20075;-53
2024/01/21 07:05:28;;;;;;;4.38;2.90;;;17.30;52.50;;;;;;4209419;28;20071;-45
2024/01/21 07:08:10;;;;;;;;;;;17.30;53.10;;;;;;4210757;28;20097;-46
2024/01/21 07:10:51;;;;;;;3.38;2.88;;;17.30;52.80;;;;;;4208672;27;20283;-45
2024/01/21 07:13:32;;;;;;;3.38;3.08;;;17.30;52.30;;;;;;4209162;28;20144;-45
2024/01/21 07:16:14;;;;;;;3.20;2.90;;;17.30;52.10;;;;;;4210696;27;20174;-45
2024/01/21 07:18:55;;;;;;;3.28;2.97;;;17.30;52.30;;;;;;4212821;27;20248;-45
2024/01/21 07:21:36;;;;;;;3.22;2.92;;;17.30;52.20;;;;;;4234788;27;20050;-46
2024/01/21 07:24:17;;;;;;;5.25;3.92;;;17.30;52.10;;;;;;4226975;28;20088;-46
2024/01/21 07:26:59;;;;;;;3.42;2.70;;;17.30;52.20;;;;;;4226326;28;20120;-46
2024/01/21 07:29:43;;;;;;;3.67;3.38;;;17.30;52.40;;;;;;4211429;28;20355;-45
2024/01/21 07:32:25;;;;;;;3.70;2.97;;;17.20;53.10;;;;;;4207818;28;20050;-46
2024/01/21 07:35:10;;;;;;;2.65;2.40;;;17.20;52.30;;;;;;4207938;28;20055;-48
2024/01/21 07:37:50;;;;;;;2.53;1.30;;;17.20;52.10;;;;;;4210422;28;20055;-50
2024/01/21 07:40:31;;;;;;;4.28;3.20;;;17.20;49.90;;;;;;4209243;28;20047;-46
2024/01/21 07:43:13;;;;;;;2.90;2.53;;;17.00;47.90;;;;;;4209231;28;20062;-45
2024/01/21 07:45:54;;;;;;;5.10;2.17;;;16.90;46.50;;;;;;4209706;28;20133;-45
2024/01/21 07:48:36;;;;;;;5.20;3.88;;;16.70;45.30;;;;;;4209814;28;20055;-45
2024/01/21 07:51:18;;;;;;;4.22;3.80;;;16.50;44.40;;;;;;4209467;28;20063;-49
2024/01/21 07:53:59;;;;;;;4.43;4.03;;;16.50;45.40;;;;;;4220005;28;20072;-45
2024/01/21 07:56:40;;;;;;;5.25;4.75;;;16.40;46.40;;;;;;4226868;27;20050;-47
2024/01/21 07:59:21;;;;;;;4.85;3.92;;;16.40;47.20;;;;;;4226418;28;20120;-46
2024/01/21 08:02:02;;;;;;;3.90;3.58;;;16.40;48.70;;;;;;4209172;28;20056;-46
2024/01/21 08:04:45;;;;;;;4.15;3.42;;;16.40;48.50;;;;;;4222080;28;20113;-52
2024/01/21 08:07:26;;;;;;;4.60;4.20;;;16.30;48.60;;;;;;4212063;28;20039;-45
2024/01/21 08:10:09;;;;;;;5.68;3.88;;;16.30;48.80;;;;;;4208870;28;20391;-45
2024/01/21 08:12:51;;;;;;;4.15;3.75;;;16.30;49.10;;;;;;4213383;27;20129;-45
2024/01/21 08:15:32;;;;;;;4.63;4.20;;;16.30;48.90;;;;;;4207605;28;20105;-45
2024/01/21 08:18:14;;;;;;;5.28;4.53;;;16.40;49.00;;;;;;4214430;28;20050;-45
2024/01/21 08:20:57;;;;;;;5.50;4.30;;;16.50;49.20;;;;;;4210514;28;20216;-45
2024/01/21 08:23:40;;;;;;;4.55;4.13;;;16.60;49.00;;;;;;4213346;28;20055;-46
2024/01/21 08:26:21;;;;;;;4.30;3.90;;;16.70;49.30;;;;;;4208512;28;20047;-48
2024/01/21 08:29:02;;;;;;;4.50;4.05;;;16.80;49.20;;;;;;4209032;28;20134;-45
2024/01/21 08:31:43;;;;;;;5.05;4.30;;;16.90;48.90;;;;;;4211132;27;20485;-47
2024/01/21 08:34:24;;;;;;;4.55;4.15;;;17.00;49.00;;;;;;4219490;27;20509;-47
2024/01/21 08:37:10;;;;;;;5.93;4.50;;;17.00;48.30;;;;;;4220647;27;20110;-47
2024/01/21 08:39:52;;;;;;;4.25;3.65;;;17.10;48.90;;;;;;4218134;27;20051;-40
2024/01/21 08:42:33;;;;;;;8.65;4.10;;;17.10;49.90;;;;;;4203546;28;20082;-40
2024/01/21 08:45:14;;;;;;;;;;;17.10;49.00;;;;;;4202251;28;20047;-40
2024/01/21 08:47:55;;;;;;;4.90;4.50;;;17.20;48.40;;;;;;4197900;27;20604;-40
2024/01/21 08:50:36;;;;;;;4.68;4.22;;;17.20;48.10;;;;;;4204789;27;20407;-40
2024/01/21 08:53:20;;;;;;;4.60;4.20;;;17.10;47.90;;;;;;4222640;27;20046;-40
2024/01/21 08:56:02;;;;;;;4.93;4.53;;;17.10;47.90;;;;;;4210356;28;20066;-40
2024/01/21 08:58:42;;;;;;;5.72;4.25;;;17.10;47.40;;;;;;4212494;28;20067;-41
2024/01/21 09:01:23;;;;;;;5.50;4.40;;;17.10;47.80;;;;;;4207161;28;20096;-40
2024/01/21 09:04:04;;;;;;;4.78;4.28;;;17.10;48.10;;;;;;4211393;27;20296;-41
2024/01/21 09:06:45;;;;;;;4.57;4.18;;;17.00;48.00;;;;;;4223399;27;20051;-40
2024/01/21 09:09:28;;;;;;;4.97;4.40;;;17.00;48.50;;;;;;4222783;27;20054;-40
2024/01/21 09:12:14;;;;;;;5.57;4.45;;;16.80;48.40;;;;;;4207276;28;20054;-40
2024/01/21 09:14:55;;;;;;;4.63;4.18;;;16.80;49.00;;;;;;4219408;27;20108;-40
2024/01/21 09:17:36;;;;;;;5.78;4.50;;;16.70;49.20;;;;;;4215109;27;20395;-41
2024/01/21 09:20:17;;;;;;;5.10;4.35;;;16.80;49.20;;;;;;4221480;27;20446;-41
2024/01/21 09:22:58;;;;;;;5.25;4.35;;;16.80;49.10;;;;;;4206476;28;20075;-41
2024/01/21 09:25:41;;;;;;;6.85;5.40;;;16.90;49.00;;;;;;4189812;27;20184;-40
2024/01/21 09:28:23;;;;;;;4.70;4.30;;;17.00;49.10;;;;;;4218516;27;20055;-41
2024/01/21 09:31:05;;;;;;;5.20;4.60;;;17.00;48.60;;;;;;4220081;27;20149;-41
2024/01/21 09:33:45;;;;;;;4.95;4.55;;;17.00;48.50;;;;;;4206607;28;20100;-41
2024/01/21 09:36:27;;;;;;;;;;;17.00;48.00;;;;;;4209496;27;20050;-42
2024/01/21 09:39:09;;;;;;;7.68;4.47;;;17.00;48.30;;;;;;4206817;28;19938;-42
2024/01/21 09:41:52;;;;;;;5.38;4.45;;;17.00;48.50;;;;;;4206909;27;20383;-41
2024/01/21 09:44:33;;;;;;;4.47;4.07;;;17.00;48.30;;;;;;4206426;27;20101;-41
2024/01/21 09:47:14;;;;;;;4.43;4.03;;;16.90;48.80;;;;;;4213360;27;20059;-41
2024/01/21 09:49:56;;;;;;;5.18;4.68;;;17.10;48.30;;;;;;4201947;28;20055;-42
2024/01/21 09:52:38;;;;;;;6.47;4.35;;;17.40;48.00;;;;;;4206553;28;20051;-41
2024/01/21 09:55:19;;;;;;;4.95;4.10;;;17.80;47.30;;;;;;4206492;28;20059;-42
2024/01/21 09:58:05;;;;;;;5.28;4.38;;;18.30;46.60;;;;;;4208035;27;20074;-41
2024/01/21 10:00:49;;;;;;;4.10;3.55;;;18.60;45.60;;;;;;4222690;27;20054;-41
2024/01/21 10:03:30;;;;;;;5.93;4.78;;;19.00;45.10;;;;;;4223118;27;20101;-42
2024/01/21 10:06:11;;;;;;;4.72;4.20;;;19.40;44.10;;;;;;4216255;27;20194;-41
2024/01/21 10:08:52;;;;;;;5.35;4.80;;;19.80;43.50;;;;;;4207180;27;20070;-41
2024/01/21 10:11:33;;;;;;;5.28;4.75;;;20.10;43.30;;;;;;4205259;28;20050;-40
2024/01/21 10:14:16;;;;;;;6.50;4.45;;;20.30;42.70;;;;;;4195090;28;20055;-45
2024/01/21 10:17:00;;;;;;;4.90;4.40;;;20.50;42.50;;;;;;4203957;28;20055;-41
2024/01/21 10:19:42;;;;;;;4.80;4.40;;;20.60;41.70;;;;;;4207117;27;20141;-40
2024/01/21 10:22:26;;;;;;;4.68;4.28;;;20.70;42.20;;;;;;4214885;27;20047;-40
2024/01/21 10:25:09;;;;;;;6.03;4.60;;;20.70;40.90;;;;;;4206382;28;20077;-40
2024/01/21 10:27:53;;;;;;;5.05;4.60;;;20.60;41.60;;;;;;4211225;27;20055;-40
2024/01/21 10:30:35;;;;;;;4.70;4.30;;;20.30;41.90;;;;;;4210831;28;20382;-41
2024/01/21 10:33:19;;;;;;;5.55;4.78;;;20.10;43.70;;;;;;4221388;27;20054;-41
2024/01/21 10:36:02;;;;;;;5.85;4.78;;;19.90;43.40;;;;;;4218675;27;20154;-40
2024/01/21 10:38:50;;;;;;;5.38;4.90;;;19.70;43.70;;;;;;4212847;27;20509;-40
2024/01/21 10:41:32;;;;;;;5.20;4.40;;;19.40;43.80;;;;;;4204823;27;20395;-40
2024/01/21 10:44:14;;;;;;;5.80;5.20;;;19.30;44.60;;;;;;4204337;28;20050;-40
2024/01/21 10:46:57;;;;;;;6.20;5.35;;;19.20;44.80;;;;;;4205326;27;20088;-40
2024/01/21 10:49:40;;;;;;;6.50;5.43;;;19.30;44.50;;;;;;4204468;28;20101;-40
2024/01/21 10:52:22;;;;;;;5.78;4.82;;;19.40;44.00;;;;;;4205141;28;20050;-41
2024/01/21 10:55:03;;;;;;;5.13;4.32;;;19.60;43.80;;;;;;4202934;28;20067;-40
2024/01/21 10:57:47;;;;;;;7.63;5.35;;;19.70;43.80;;;;;;4205340;27;20403;-41
2024/01/21 11:00:28;;;;;;;5.30;4.80;;;19.80;43.40;;;;;;4205082;28;20047;-40
2024/01/21 11:03:25;;;;;;;5.40;5.00;;;19.90;43.10;;;;;;4212682;27;20124;-47
2024/01/21 11:06:10;;;;;;;6.32;4.88;;;19.90;42.90;;;;;;4203853;28;20055;-48
2024/01/21 11:08:54;;;;;;;7.88;4.97;;;19.90;43.10;;;;;;4207725;27;20055;-48
2024/01/21 11:11:42;;;;;;;7.13;4.95;;;19.90;43.10;;;;;;4221943;27;20050;-48
2024/01/21 11:14:31;;;;;;;6.20;4.68;;;19.90;43.40;;;;;;4220503;27;20047;-48
2024/01/21 11:17:15;;;;;;;6.22;4.07;;;19.80;43.70;;;;;;4207999;27;20055;-48
2024/01/21 11:19:57;;;;;;;5.30;4.80;;;19.70;44.10;;;;;;4196954;27;20447;-51
2024/01/21 11:22:38;;;;;;;6.25;5.38;;;19.60;44.00;;;;;;4188312;27;20055;-47
2024/01/21 11:25:33;;;;;;;8.57;5.85;;;19.60;43.90;;;;;;4188647;27;20063;-41
2024/01/21 11:28:26;;;;;;;5.85;4.57;;;19.60;44.40;;;;;;4198769;28;20514;-51
2024/01/21 11:31:08;;;;;;;5.38;4.90;;;19.60;44.20;;;;;;4219165;27;20193;-48
2024/01/21 11:34:03;;;;;;;5.43;4.60;;;19.60;44.40;;;;;;4234083;27;20054;-48
2024/01/21 11:36:46;;;;;;;5.72;4.75;;;19.60;44.80;;;;;;4232344;27;20529;-49
2024/01/21 11:39:27;;;;;;;5.20;4.20;;;19.60;45.10;;;;;;4237242;27;20135;-49
2024/01/21 11:42:09;;;;;;;5.07;4.57;;;19.60;45.40;;;;;;4237502;27;20070;-48
2024/01/21 11:44:50;;;;;;;5.10;4.70;;;19.70;45.60;;;;;;4235501;27;20485;-50
2024/01/21 11:47:31;;;;;;;5.10;4.68;;;19.70;45.40;;;;;;4211693;27;20065;-48
2024/01/21 11:50:12;;;;;;;5.60;5.00;;;19.70;45.30;;;;;;4221078;27;20054;-48
2024/01/21 11:52:56;;;;;;;5.05;4.55;;;19.70;45.40;;;;;;4219699;27;20112;-52
2024/01/21 11:55:37;;;;;;;5.18;4.68;;;19.70;45.30;;;;;;4221031;27;20127;-48
2024/01/21 11:58:18;;;;;;;5.18;4.57;;;19.70;45.40;;;;;;4206125;27;20182;-49
2024/01/21 12:00:59;;;;;;;;;;;19.70;45.30;;;;;;4215087;27;20050;-52
2024/01/21 12:03:40;;;;;;;5.55;4.45;;;19.60;45.60;;;;;;4214771;27;19926;-49
2024/01/21 12:06:22;;;;;;;6.10;4.95;;;19.40;45.80;;;;;;4200842;28;20173;-52
2024/01/21 12:09:05;;;;;;;5.88;5.22;;;19.30;46.20;;;;;;4207847;27;20204;-52
2024/01/21 12:11:48;;;;;;;5.07;4.53;;;19.20;46.10;;;;;;4195514;27;20122;-48
2024/01/21 12:14:29;;;;;;;5.30;4.80;;;19.10;46.70;;;;;;4214106;27;20054;-49
2024/01/21 12:17:10;;;;;;;11.38;4.68;;;19.10;46.50;;;;;;4220277;27;20062;-49
2024/01/21 12:19:51;;;;;;;5.88;5.10;;;19.10;46.50;;;;;;4203805;28;20046;-48
2024/01/21 12:22:39;;;;;;;6.00;4.65;;;19.20;46.50;;;;;;4204166;27;20108;-48
2024/01/21 12:25:24;;;;;;;5.45;4.90;;;19.20;46.40;;;;;;4207773;27;20514;-49
2024/01/21 12:28:05;;;;;;;6.00;4.68;;;19.20;46.60;;;;;;4218273;27;20055;-47
2024/01/21 12:30:47;;;;;;;5.22;4.55;;;19.30;46.80;;;;;;4223988;27;20055;-48
2024/01/21 12:33:28;;;;;;;5.38;4.68;;;19.30;47.60;;;;;;4223859;27;20108;-48
2024/01/21 12:36:09;;;;;;;5.80;4.72;;;19.40;47.00;;;;;;4223782;27;20059;-48
2024/01/21 12:38:50;;;;;;;7.75;5.88;;;19.40;46.80;;;;;;4216647;27;20047;-52
2024/01/21 12:41:34;;;;;;;5.93;5.38;;;19.40;46.70;;;;;;4221168;28;20490;-48
2024/01/21 12:44:15;;;;;;;5.85;4.30;;;19.50;46.20;;;;;;4213317;27;20062;-48
2024/01/21 12:46:56;;;;;;;5.28;4.78;;;19.50;46.70;;;;;;4215660;27;20063;-51
2024/01/21 12:49:37;;;;;;;4.95;4.50;;;19.40;46.50;;;;;;4205415;28;20514;-48
2024/01/21 12:52:18;;;;;;;4.63;4.20;;;19.40;46.60;;;;;;4206630;27;20108;-49
2024/01/21 12:54:59;;;;;;;8.82;5.22;;;19.40;46.80;;;;;;4205061;28;20055;-49
2024/01/21 12:57:42;;;;;;;7.40;4.70;;;19.40;46.50;;;;;;4201983;28;20159;-41
2024/01/21 13:00:23;;;;;;;6.15;5.13;;;19.40;46.70;;;;;;4208005;27;20059;-41
2024/01/21 13:03:05;;;;;;;6.57;4.95;;;19.40;46.90;;;;;;4204457;28;20395;-51
2024/01/21 13:05:46;;;;;;;7.45;5.45;;;19.40;47.00;;;;;;4204056;28;20518;-50
2024/01/21 13:08:27;;;;;;;5.25;4.85;;;19.40;46.90;;;;;;4220608;27;20054;-48
2024/01/21 13:11:08;;;;;;;6.50;5.20;;;19.40;47.00;;;;;;4220363;27;20589;-47
2024/01/21 13:13:50;;;;;;;5.88;5.20;;;19.30;47.10;;;;;;4220393;27;20055;-48
2024/01/21 13:16:33;;;;;;;6.28;5.68;;;19.30;47.30;;;;;;4205643;28;20132;-48
2024/01/21 13:19:14;;;;;;;6.53;4.55;;;19.20;47.20;;;;;;4188616;28;20059;-50
2024/01/21 13:21:55;;;;;;;6.07;4.80;;;19.20;47.30;;;;;;4189294;28;20101;-41
2024/01/21 13:24:36;;;;;;;5.15;4.65;;;19.20;47.30;;;;;;4204144;27;20050;-41
2024/01/21 13:27:26;;;;;;;5.60;5.05;;;19.20;47.50;;;;;;4188004;28;20059;-41
2024/01/21 13:33:10;;;;;;;6.70;4.38;;;19.20;47.40;;;;;;4207505;28;20054;-41
2024/01/21 13:35:51;;;;;;;;;;;19.20;47.80;;;;;;4216683;27;20044;-41
2024/01/21 13:38:34;;;;;;;7.10;4.65;;;19.30;47.80;;;;;;4213326;27;19931;-41
2024/01/21 13:41:15;;;;;;;8.05;5.30;;;19.30;47.70;;;;;;4229312;27;20492;-41
2024/01/21 13:43:56;;;;;;;5.78;5.18;;;19.30;47.70;;;;;;4231855;27;20101;-41
2024/01/21 13:46:39;;;;;;;5.55;4.28;;;19.30;47.50;;;;;;4209810;27;20046;-41
2024/01/21 13:49:21;;;;;;;7.07;5.35;;;19.30;47.60;;;;;;4206713;27;20050;-41
2024/01/21 13:52:02;;;;;;;;;;;19.20;47.80;;;;;;4196109;27;20054;-41
2024/01/21 13:54:43;;;;;;;7.72;4.88;;;19.20;47.90;;;;;;4226809;27;19930;-41
2024/01/21 13:57:24;;;;;;;5.55;4.35;;;19.20;47.90;;;;;;4215054;27;20213;-41
2024/01/21 14:00:07;;;;;;;5.90;4.82;;;19.20;47.90;;;;;;4220548;28;20062;-41
2024/01/21 14:02:50;;;;;;;8.05;4.72;;;19.30;47.90;;;;;;4216311;27;20055;-41
2024/01/21 14:05:32;;;;;;;8.95;4.75;;;19.30;48.00;;;;;;4224331;27;20164;-41
2024/01/21 14:08:13;;;;;;;5.65;4.68;;;19.20;48.70;;;;;;4206253;27;20129;-41
2024/01/21 14:10:54;;;;;;;5.35;4.82;;;19.20;48.00;;;;;;4206349;27;20507;-41